Johnston, Mississippi
Current Conditions -  °F | °C
As of 7:53 AM on Thursday 27 Nov 2014 (Local Time) from KMCB Reporting Station
Clear Clear  
Wind Chill: 41°   Ceiling: Unl
Heat Index: 46°   Visibility: 10mi
Dew Point: 31°   Wind: 12mph
Humidity: 56%   Direction: 350°N
Pressure: 30.44"   Gusts: NA
Location:  31.2993°N, 90.4958°W
Report Text: KMCB 271353Z AUTO 35010KT 10SM CLR 08/M01 A3044 RMK AO2 SLP307 T00781006
Loading
Personal Weather Stations






























Interactive Weather Map New forecast layout! Learn more

10-Day Weather Forecast

Advertisements
Track Severe Weather on mobile